createdAt,value
2023-03-23T15:58:36.483Z,2.70
2023-03-23T16:01:13.051Z,2.80
2023-03-23T16:03:47.040Z,3.20
2023-03-23T16:06:25.324Z,3.50
2023-03-23T16:08:57.007Z,3.30
2023-03-23T16:11:28.753Z,3.00
2023-03-23T16:13:59.595Z,3.30
2023-03-23T16:16:33.794Z,3.30
2023-03-23T16:19:07.506Z,3.50
2023-03-23T16:21:38.750Z,3.40
2023-03-23T16:24:10.055Z,3.10
2023-03-23T16:26:41.762Z,3.20
2023-03-23T16:29:20.510Z,3.10
2023-03-23T16:31:55.306Z,3.30
2023-03-23T16:34:29.323Z,4.00
2023-03-23T16:37:00.637Z,4.70
2023-03-23T16:39:31.336Z,3.80
2023-03-23T16:42:02.439Z,3.50
2023-03-23T16:44:32.994Z,4.00
2023-03-23T16:47:03.810Z,4.10
2023-03-23T16:49:34.940Z,4.50
2023-03-23T16:52:05.997Z,4.40
2023-03-23T16:54:37.543Z,4.20
2023-03-23T16:57:08.914Z,3.90
2023-03-23T16:59:40.138Z,4.30
2023-03-23T17:02:12.082Z,4.60
2023-03-23T17:04:45.973Z,4.80
2023-03-23T17:07:16.623Z,5.30
2023-03-23T17:09:48.426Z,5.10
2023-03-23T17:12:18.992Z,4.90
2023-03-23T17:14:49.961Z,5.60
2023-03-23T17:17:20.723Z,5.60
2023-03-23T17:19:52.190Z,5.70
2023-03-23T17:22:22.903Z,5.10
2023-03-23T17:24:53.866Z,5.20
2023-03-23T17:27:25.151Z,5.20
2023-03-23T17:29:56.808Z,4.60
2023-03-23T17:32:27.951Z,5.60
2023-03-23T17:34:59.784Z,6.30
2023-03-23T17:37:30.772Z,5.30
2023-03-23T17:40:01.894Z,5.90
2023-03-23T17:42:32.830Z,5.20
2023-03-23T17:45:03.981Z,6.30
2023-03-23T17:47:35.373Z,5.50
2023-03-23T17:50:11.433Z,6.00
2023-03-23T17:52:43.965Z,7.80
2023-03-23T17:55:16.539Z,6.90
2023-03-23T17:57:47.349Z,7.00
2023-03-23T18:00:19.667Z,6.80
2023-03-23T18:02:50.521Z,7.90
2023-03-23T18:05:22.033Z,6.90
2023-03-23T18:07:53.114Z,8.10
2023-03-23T18:10:24.718Z,8.20
2023-03-23T18:12:55.672Z,8.20
2023-03-23T18:15:28.396Z,7.50
2023-03-23T18:18:00.057Z,7.80
2023-03-23T18:20:32.037Z,9.40
2023-03-23T18:23:04.949Z,8.10
2023-03-23T18:25:36.088Z,9.00
2023-03-23T18:28:07.869Z,8.90
2023-03-23T18:30:40.210Z,8.00
2023-03-23T18:33:11.146Z,9.30
2023-03-23T18:35:42.676Z,9.00
2023-03-23T18:38:14.351Z,8.10
2023-03-23T18:40:45.843Z,8.90
2023-03-23T18:43:16.661Z,8.20
2023-03-23T18:45:51.808Z,9.30
2023-03-23T18:48:22.933Z,8.60
2023-03-23T18:50:55.228Z,9.00
2023-03-23T18:53:26.657Z,10.60
2023-03-23T18:56:04.805Z,11.00
2023-03-23T18:58:35.396Z,10.00
2023-03-23T19:01:07.899Z,9.60
2023-03-23T19:03:41.041Z,9.40
2023-03-23T19:06:15.604Z,9.20
2023-03-23T19:08:47.167Z,10.30
2023-03-23T19:11:18.578Z,9.60
2023-03-23T19:14:00.624Z,10.50
2023-03-23T19:16:36.266Z,9.70
2023-03-23T19:19:09.135Z,10.80
2023-03-23T19:21:41.139Z,11.70
2023-03-23T19:24:12.523Z,10.00
2023-03-23T19:26:44.788Z,11.20
2023-03-23T19:31:51.062Z,13.30
2023-03-23T19:34:22.317Z,11.80
2023-03-23T19:36:56.391Z,14.50
2023-03-23T19:39:36.922Z,14.90
2023-03-23T19:42:08.558Z,14.10
2023-03-23T19:44:39.261Z,14.80
2023-03-23T19:55:19.397Z,13.00
2023-03-23T19:57:50.897Z,14.10
2023-03-23T20:00:24.399Z,13.10
2023-03-23T20:02:56.037Z,12.00
2023-03-23T20:05:27.346Z,12.70
2023-03-23T20:07:58.372Z,12.50
2023-03-23T20:10:30.046Z,12.20
2023-03-23T20:13:01.474Z,12.60
2023-03-23T20:15:32.920Z,13.30
2023-03-23T20:18:04.839Z,12.60
2023-03-23T20:20:37.976Z,13.90
2023-03-23T20:23:08.969Z,13.40
2023-03-23T20:25:40.054Z,14.10
2023-03-23T20:28:11.088Z,13.30
2023-03-23T20:30:42.923Z,13.90
2023-03-23T20:33:14.518Z,15.70
2023-03-23T20:35:45.841Z,17.50
2023-03-23T20:38:18.735Z,16.70
2023-03-23T20:40:49.569Z,17.00
2023-03-23T20:43:20.708Z,17.70
2023-03-23T20:45:51.908Z,16.30
2023-03-23T20:48:22.787Z,16.50
2023-03-23T20:50:54.076Z,14.80
2023-03-23T20:53:25.828Z,14.20
2023-03-23T20:55:57.717Z,15.60
2023-03-23T20:58:29.550Z,14.10
2023-03-23T21:01:01.600Z,14.80
2023-03-23T21:03:34.674Z,14.20
2023-03-23T21:06:07.762Z,13.20
2023-03-23T21:11:09.374Z,13.00
2023-03-23T21:13:40.360Z,12.30
2023-03-23T21:16:11.637Z,12.50
2023-03-23T21:18:42.864Z,13.50
2023-03-23T21:21:15.221Z,13.20
2023-03-23T21:23:52.194Z,13.40
2023-03-23T21:26:24.381Z,13.60
2023-03-23T21:29:00.310Z,12.80
2023-03-23T21:31:33.445Z,12.50
2023-03-23T21:34:04.502Z,13.30
2023-03-23T21:36:35.849Z,13.80
2023-03-23T21:39:07.264Z,13.30
2023-03-23T21:41:41.943Z,13.20
2023-03-23T21:44:13.629Z,13.60
2023-03-23T21:46:44.558Z,13.70
2023-03-23T21:49:15.683Z,13.00
2023-03-23T21:51:49.157Z,14.20
2023-03-23T21:54:21.485Z,13.30
2023-03-23T21:56:52.579Z,13.40
2023-03-23T21:59:23.547Z,13.10
2023-03-23T22:01:55.972Z,14.40
2023-03-23T22:04:28.251Z,14.60
2023-03-23T22:06:59.853Z,13.20
2023-03-23T22:09:31.397Z,14.10
2023-03-23T22:12:02.846Z,14.20
2023-03-23T22:14:34.078Z,13.20
2023-03-23T22:17:05.526Z,14.50
2023-03-23T22:19:36.990Z,13.50
2023-03-23T22:22:09.567Z,13.30
2023-03-23T22:24:40.221Z,12.50
2023-03-23T22:27:11.954Z,11.70
2023-03-23T22:29:42.836Z,12.90
2023-03-23T22:32:13.819Z,12.90
2023-03-23T22:34:45.283Z,13.20
2023-03-23T22:37:16.758Z,12.40
2023-03-23T22:39:47.990Z,11.90
2023-03-23T22:42:19.132Z,12.20
2023-03-23T22:44:49.962Z,12.20
2023-03-23T22:47:21.199Z,12.20
2023-03-23T22:49:52.176Z,12.00
2023-03-23T22:52:22.977Z,11.30
2023-03-23T22:54:54.063Z,11.70
2023-03-23T22:57:27.749Z,11.80
2023-03-23T22:59:58.725Z,11.80
2023-03-23T23:02:29.875Z,11.60
2023-03-23T23:05:00.861Z,11.50
2023-03-23T23:07:31.497Z,10.70
2023-03-23T23:10:02.621Z,10.70
2023-03-23T23:12:35.323Z,11.20
2023-03-23T23:15:07.404Z,10.20
2023-03-23T23:17:39.185Z,10.90
2023-03-23T23:20:13.081Z,11.40
2023-03-23T23:22:44.923Z,11.80
2023-03-23T23:25:16.144Z,11.50
2023-03-23T23:27:46.973Z,12.60
2023-03-23T23:30:18.116Z,11.30
2023-03-23T23:32:52.268Z,11.40
2023-03-23T23:35:23.103Z,10.20
2023-03-23T23:37:53.899Z,11.00
2023-03-23T23:40:24.735Z,11.10
2023-03-23T23:42:55.476Z,10.50
2023-03-23T23:45:26.714Z,10.50
2023-03-23T23:47:57.997Z,11.30
2023-03-23T23:50:29.002Z,11.50
2023-03-23T23:53:00.396Z,10.50
2023-03-23T23:55:31.605Z,11.00
2023-03-23T23:58:02.242Z,10.20
